Terminal Aerodrome Forecast
Issued by NWS Milwaukee/Sullivan, WI

Home | Current Version | Previous Version | Text Only | Print | Product List | Glossary On
Versions: 1 2 3 4 5 6 7 8 9 10 11 12 13 14 15 16 17 18 19 20 21 22 23 24 25 26 27 28 29 30
000
FTUS43 KMKX 271133
TAFMKE
TAF
KMKE 271133Z 2712/2818 28010KT P6SM SHRA SCT006 BKN015
      TEMPO 2712/2714 BKN006
     FM271400 27012G20KT P6SM -SHRA OVC010
     FM271700 25016G26KT P6SM OVC020
     FM272100 25014G23KT P6SM OVC035
     FM280400 23007KT P6SM SCT060
     FM281500 18004KT P6SM BKN070=

USA.gov is the U.S. government's official web portal to all federal, state and local government web resources and services.